sensor_id;sensor_type;location;lat;lon;timestamp;pressure;altitude;pressure_sealevel;temperature;humidity
76868;BME280;66168;45.478;11.060;2024-02-21T00:00:27;101729.48;;;12.13;58.49
76868;BME280;66168;45.478;11.060;2024-02-21T00:02:54;101731.61;;;12.13;58.39
76868;BME280;66168;45.478;11.060;2024-02-21T00:05:25;101731.77;;;12.15;58.32
76868;BME280;66168;45.478;11.060;2024-02-21T00:07:52;101734.05;;;12.17;58.16
76868;BME280;66168;45.478;11.060;2024-02-21T00:10:19;101730.16;;;12.19;57.92
76868;BME280;66168;45.478;11.060;2024-02-21T00:12:46;101730.00;;;12.20;57.64
76868;BME280;66168;45.478;11.060;2024-02-21T00:15:13;101725.48;;;12.21;57.43
76868;BME280;66168;45.478;11.060;2024-02-21T00:17:39;101727.48;;;12.20;57.16
76868;BME280;66168;45.478;11.060;2024-02-21T00:20:07;101726.16;;;12.21;57.09
76868;BME280;66168;45.478;11.060;2024-02-21T00:22:35;101725.86;;;12.22;56.85
76868;BME280;66168;45.478;11.060;2024-02-21T00:25:02;101722.04;;;12.21;56.29
76868;BME280;66168;45.478;11.060;2024-02-21T00:27:28;101721.80;;;12.20;56.35
76868;BME280;66168;45.478;11.060;2024-02-21T00:29:55;101720.13;;;12.21;56.45
76868;BME280;66168;45.478;11.060;2024-02-21T00:32:22;101717.47;;;12.21;56.57
76868;BME280;66168;45.478;11.060;2024-02-21T00:34:49;101717.16;;;12.20;56.33
76868;BME280;66168;45.478;11.060;2024-02-21T00:37:16;101717.13;;;12.21;56.09
76868;BME280;66168;45.478;11.060;2024-02-21T00:39:42;101715.77;;;12.20;55.82
76868;BME280;66168;45.478;11.060;2024-02-21T00:42:09;101718.89;;;12.21;55.96
76868;BME280;66168;45.478;11.060;2024-02-21T00:44:36;101714.83;;;12.21;55.88
76868;BME280;66168;45.478;11.060;2024-02-21T00:47:03;101715.50;;;12.19;56.00
76868;BME280;66168;45.478;11.060;2024-02-21T00:49:29;101713.14;;;12.20;56.18
76868;BME280;66168;45.478;11.060;2024-02-21T00:51:56;101716.84;;;12.22;56.03
76868;BME280;66168;45.478;11.060;2024-02-21T00:54:23;101714.65;;;12.22;56.23
76868;BME280;66168;45.478;11.060;2024-02-21T00:56:50;101713.59;;;12.22;56.25
76868;BME280;66168;45.478;11.060;2024-02-21T00:59:18;101708.15;;;12.22;56.17
76868;BME280;66168;45.478;11.060;2024-02-21T01:01:45;101708.86;;;12.20;55.48
76868;BME280;66168;45.478;11.060;2024-02-21T01:04:11;101709.39;;;12.18;55.34
76868;BME280;66168;45.478;11.060;2024-02-21T01:06:39;101710.48;;;12.16;54.79
76868;BME280;66168;45.478;11.060;2024-02-21T01:09:10;101706.02;;;12.15;54.01
76868;BME280;66168;45.478;11.060;2024-02-21T01:11:37;101702.23;;;12.12;53.73
76868;BME280;66168;45.478;11.060;2024-02-21T01:14:04;101700.09;;;12.10;54.13
76868;BME280;66168;45.478;11.060;2024-02-21T01:16:31;101699.02;;;12.09;53.73
76868;BME280;66168;45.478;11.060;2024-02-21T01:18:58;101699.46;;;12.04;53.51
76868;BME280;66168;45.478;11.060;2024-02-21T01:21:25;101698.63;;;12.02;52.82
76868;BME280;66168;45.478;11.060;2024-02-21T01:23:51;101696.14;;;11.99;52.44
76868;BME280;66168;45.478;11.060;2024-02-21T01:26:18;101692.93;;;11.97;52.51
76868;BME280;66168;45.478;11.060;2024-02-21T01:28:45;101691.66;;;11.96;51.94
76868;BME280;66168;45.478;11.060;2024-02-21T01:31:12;101691.79;;;11.95;51.50
76868;BME280;66168;45.478;11.060;2024-02-21T01:33:39;101695.32;;;11.95;50.78
76868;BME280;66168;45.478;11.060;2024-02-21T01:36:06;101693.84;;;11.95;51.73
76868;BME280;66168;45.478;11.060;2024-02-21T01:38:34;101694.10;;;11.96;51.39
76868;BME280;66168;45.478;11.060;2024-02-21T01:41:01;101691.45;;;11.98;50.80
76868;BME280;66168;45.478;11.060;2024-02-21T01:43:28;101689.52;;;11.97;50.73
76868;BME280;66168;45.478;11.060;2024-02-21T01:45:56;101687.11;;;11.97;51.04
76868;BME280;66168;45.478;11.060;2024-02-21T01:48:24;101694.03;;;11.97;50.83
76868;BME280;66168;45.478;11.060;2024-02-21T01:50:54;101698.16;;;11.97;50.76
76868;BME280;66168;45.478;11.060;2024-02-21T01:53:23;101699.30;;;11.96;51.40
76868;BME280;66168;45.478;11.060;2024-02-21T01:55:52;101696.69;;;11.95;51.25
76868;BME280;66168;45.478;11.060;2024-02-21T01:58:20;101699.71;;;11.95;51.00
76868;BME280;66168;45.478;11.060;2024-02-21T02:00:48;101698.59;;;11.96;51.25
76868;BME280;66168;45.478;11.060;2024-02-21T02:03:15;101694.09;;;11.96;51.46
76868;BME280;66168;45.478;11.060;2024-02-21T02:05:46;101691.94;;;11.97;51.38
76868;BME280;66168;45.478;11.060;2024-02-21T02:08:17;101686.41;;;11.97;51.24
76868;BME280;66168;45.478;11.060;2024-02-21T02:10:44;101686.88;;;11.97;51.35
76868;BME280;66168;45.478;11.060;2024-02-21T02:13:13;101682.64;;;11.97;51.22
76868;BME280;66168;45.478;11.060;2024-02-21T02:18:07;101678.45;;;11.95;51.00
76868;BME280;66168;45.478;11.060;2024-02-21T02:20:35;101678.20;;;11.94;51.27
76868;BME280;66168;45.478;11.060;2024-02-21T02:25:49;101680.83;;;11.89;51.87
76868;BME280;66168;45.478;11.060;2024-02-21T02:28:19;101680.80;;;11.65;53.35
76868;BME280;66168;45.478;11.060;2024-02-21T02:30:47;101686.57;;;11.45;54.17
76868;BME280;66168;45.478;11.060;2024-02-21T02:33:14;101684.29;;;11.33;54.61
76868;BME280;66168;45.478;11.060;2024-02-21T02:35:41;101681.85;;;11.26;55.05
76868;BME280;66168;45.478;11.060;2024-02-21T02:38:08;101682.34;;;11.21;54.95
76868;BME280;66168;45.478;11.060;2024-02-21T02:40:35;101679.45;;;11.18;55.11
76868;BME280;66168;45.478;11.060;2024-02-21T02:43:02;101675.13;;;11.15;54.94
76868;BME280;66168;45.478;11.060;2024-02-21T02:45:30;101673.63;;;10.96;56.49
76868;BME280;66168;45.478;11.060;2024-02-21T02:47:58;101671.29;;;10.81;55.98
76868;BME280;66168;45.478;11.060;2024-02-21T02:50:26;101676.02;;;10.71;56.14
76868;BME280;66168;45.478;11.060;2024-02-21T02:52:54;101674.14;;;10.70;55.84
76868;BME280;66168;45.478;11.060;2024-02-21T02:55:22;101675.05;;;10.75;54.69
76868;BME280;66168;45.478;11.060;2024-02-21T02:57:49;101670.33;;;10.82;54.06
76868;BME280;66168;45.478;11.060;2024-02-21T03:00:16;101668.84;;;10.89;53.74
76868;BME280;66168;45.478;11.060;2024-02-21T03:02:44;101665.16;;;10.98;53.17
76868;BME280;66168;45.478;11.060;2024-02-21T03:05:17;101667.66;;;11.04;52.94
76868;BME280;66168;45.478;11.060;2024-02-21T03:07:45;101667.80;;;11.12;53.01
76868;BME280;66168;45.478;11.060;2024-02-21T03:10:13;101667.91;;;11.18;52.76
76868;BME280;66168;45.478;11.060;2024-02-21T03:12:40;101668.35;;;11.22;52.97
76868;BME280;66168;45.478;11.060;2024-02-21T03:15:08;101668.77;;;11.27;52.47
76868;BME280;66168;45.478;11.060;2024-02-21T03:17:35;101671.60;;;11.30;52.48
76868;BME280;66168;45.478;11.060;2024-02-21T03:20:03;101674.98;;;11.32;52.34
76868;BME280;66168;45.478;11.060;2024-02-21T03:22:39;101680.48;;;11.32;52.44
76868;BME280;66168;45.478;11.060;2024-02-21T03:25:08;101681.90;;;11.32;52.70
76868;BME280;66168;45.478;11.060;2024-02-21T03:27:36;101687.84;;;11.33;52.80
76868;BME280;66168;45.478;11.060;2024-02-21T03:30:03;101689.34;;;11.34;52.83
76868;BME280;66168;45.478;11.060;2024-02-21T03:32:31;101689.41;;;11.35;52.67
76868;BME280;66168;45.478;11.060;2024-02-21T03:34:58;101692.45;;;11.36;52.74
76868;BME280;66168;45.478;11.060;2024-02-21T03:37:25;101693.43;;;11.39;53.01
76868;BME280;66168;45.478;11.060;2024-02-21T03:39:52;101691.09;;;11.41;53.16
76868;BME280;66168;45.478;11.060;2024-02-21T03:42:19;101687.80;;;11.44;53.34
76868;BME280;66168;45.478;11.060;2024-02-21T03:44:45;101686.77;;;11.45;53.35
76868;BME280;66168;45.478;11.060;2024-02-21T03:47:12;101687.50;;;11.46;53.35
76868;BME280;66168;45.478;11.060;2024-02-21T03:49:39;101685.45;;;11.48;53.05
76868;BME280;66168;45.478;11.060;2024-02-21T03:52:06;101683.81;;;11.48;53.04
76868;BME280;66168;45.478;11.060;2024-02-21T03:54:34;101681.27;;;11.49;53.01
76868;BME280;66168;45.478;11.060;2024-02-21T03:57:01;101679.45;;;11.49;53.35
76868;BME280;66168;45.478;11.060;2024-02-21T03:59:29;101674.80;;;11.49;53.01
76868;BME280;66168;45.478;11.060;2024-02-21T04:01:56;101671.77;;;11.49;53.07
76868;BME280;66168;45.478;11.060;2024-02-21T04:04:23;101673.43;;;11.49;53.07
76868;BME280;66168;45.478;11.060;2024-02-21T04:06:50;101669.98;;;11.47;53.23
76868;BME280;66168;45.478;11.060;2024-02-21T04:09:17;101667.39;;;11.47;53.31
76868;BME280;66168;45.478;11.060;2024-02-21T04:11:44;101667.25;;;11.47;53.49
76868;BME280;66168;45.478;11.060;2024-02-21T04:14:12;101672.73;;;11.45;53.38
76868;BME280;66168;45.478;11.060;2024-02-21T04:16:39;101675.02;;;11.43;53.28
76868;BME280;66168;45.478;11.060;2024-02-21T04:19:07;101677.45;;;11.42;53.39
76868;BME280;66168;45.478;11.060;2024-02-21T04:21:35;101680.70;;;11.42;53.42
76868;BME280;66168;45.478;11.060;2024-02-21T04:24:02;101682.56;;;11.41;53.50
76868;BME280;66168;45.478;11.060;2024-02-21T04:26:33;101678.69;;;11.43;53.46
76868;BME280;66168;45.478;11.060;2024-02-21T04:29:01;101669.13;;;11.42;53.42
76868;BME280;66168;45.478;11.060;2024-02-21T04:31:28;101670.79;;;11.43;53.74
76868;BME280;66168;45.478;11.060;2024-02-21T04:33:56;101672.33;;;11.44;53.84
76868;BME280;66168;45.478;11.060;2024-02-21T04:36:23;101675.61;;;11.43;53.41
76868;BME280;66168;45.478;11.060;2024-02-21T04:38:50;101671.33;;;11.42;53.20
76868;BME280;66168;45.478;11.060;2024-02-21T04:41:18;101667.77;;;11.42;53.22
76868;BME280;66168;45.478;11.060;2024-02-21T04:43:46;101668.07;;;11.42;53.42
76868;BME280;66168;45.478;11.060;2024-02-21T04:46:14;101673.91;;;11.42;53.47
76868;BME280;66168;45.478;11.060;2024-02-21T04:48:42;101678.66;;;11.43;53.76
76868;BME280;66168;45.478;11.060;2024-02-21T04:51:11;101680.07;;;11.41;53.39
76868;BME280;66168;45.478;11.060;2024-02-21T04:53:38;101683.15;;;11.40;53.16
76868;BME280;66168;45.478;11.060;2024-02-21T04:56:05;101682.29;;;11.40;53.37
76868;BME280;66168;45.478;11.060;2024-02-21T04:58:32;101683.16;;;11.39;53.52
76868;BME280;66168;45.478;11.060;2024-02-21T05:00:59;101685.89;;;11.36;53.49
76868;BME280;66168;45.478;11.060;2024-02-21T05:03:25;101681.45;;;11.34;53.24
76868;BME280;66168;45.478;11.060;2024-02-21T05:05:52;101680.98;;;11.34;53.21
76868;BME280;66168;45.478;11.060;2024-02-21T05:08:19;101689.65;;;11.34;52.95
76868;BME280;66168;45.478;11.060;2024-02-21T05:10:46;101693.06;;;11.34;53.11
76868;BME280;66168;45.478;11.060;2024-02-21T05:13:13;101696.06;;;11.34;53.22
76868;BME280;66168;45.478;11.060;2024-02-21T05:15:39;101697.13;;;11.34;53.32
76868;BME280;66168;45.478;11.060;2024-02-21T05:18:06;101695.06;;;11.34;53.10
76868;BME280;66168;45.478;11.060;2024-02-21T05:20:34;101691.56;;;11.33;52.83
76868;BME280;66168;45.478;11.060;2024-02-21T05:23:01;101696.58;;;11.33;52.76
76868;BME280;66168;45.478;11.060;2024-02-21T05:25:28;101689.95;;;11.31;52.77
76868;BME280;66168;45.478;11.060;2024-02-21T05:27:55;101682.45;;;11.30;52.61
76868;BME280;66168;45.478;11.060;2024-02-21T05:30:22;101676.86;;;11.31;52.93
76868;BME280;66168;45.478;11.060;2024-02-21T05:32:49;101678.77;;;11.31;53.14
76868;BME280;66168;45.478;11.060;2024-02-21T05:35:16;101681.23;;;11.32;53.26
76868;BME280;66168;45.478;11.060;2024-02-21T05:37:43;101682.23;;;11.31;53.27
76868;BME280;66168;45.478;11.060;2024-02-21T05:40:10;101680.15;;;11.30;53.30
76868;BME280;66168;45.478;11.060;2024-02-21T05:42:40;101678.61;;;11.29;53.17
76868;BME280;66168;45.478;11.060;2024-02-21T05:45:06;101679.23;;;11.28;53.32
76868;BME280;66168;45.478;11.060;2024-02-21T05:47:33;101680.48;;;11.29;53.32
76868;BME280;66168;45.478;11.060;2024-02-21T05:50:00;101681.14;;;11.29;53.50
76868;BME280;66168;45.478;11.060;2024-02-21T05:52:27;101681.31;;;11.29;53.44
76868;BME280;66168;45.478;11.060;2024-02-21T05:54:54;101679.56;;;11.27;53.34
76868;BME280;66168;45.478;11.060;2024-02-21T05:57:20;101680.15;;;11.25;53.29
76868;BME280;66168;45.478;11.060;2024-02-21T05:59:47;101679.61;;;11.25;53.26
76868;BME280;66168;45.478;11.060;2024-02-21T06:02:14;101676.79;;;11.25;53.22
76868;BME280;66168;45.478;11.060;2024-02-21T06:04:41;101671.85;;;11.23;53.23
76868;BME280;66168;45.478;11.060;2024-02-21T06:07:09;101675.97;;;11.22;53.44
76868;BME280;66168;45.478;11.060;2024-02-21T06:09:37;101677.61;;;11.20;53.44
76868;BME280;66168;45.478;11.060;2024-02-21T06:12:03;101676.62;;;11.20;53.59
76868;BME280;66168;45.478;11.060;2024-02-21T06:14:30;101674.32;;;11.19;53.72
76868;BME280;66168;45.478;11.060;2024-02-21T06:16:57;101673.61;;;11.20;53.72
76868;BME280;66168;45.478;11.060;2024-02-21T06:19:24;101672.83;;;11.18;53.69
76868;BME280;66168;45.478;11.060;2024-02-21T06:21:51;101676.67;;;11.19;53.81
76868;BME280;66168;45.478;11.060;2024-02-21T06:24:18;101682.73;;;11.19;53.90
76868;BME280;66168;45.478;11.060;2024-02-21T06:26:45;101690.73;;;11.19;53.81
76868;BME280;66168;45.478;11.060;2024-02-21T06:29:12;101693.85;;;11.19;53.98
76868;BME280;66168;45.478;11.060;2024-02-21T06:31:40;101698.68;;;11.21;53.97
76868;BME280;66168;45.478;11.060;2024-02-21T06:34:07;101700.40;;;11.23;54.01
76868;BME280;66168;45.478;11.060;2024-02-21T06:36:34;101703.80;;;11.24;54.07
76868;BME280;66168;45.478;11.060;2024-02-21T06:39:01;101711.04;;;11.25;54.18
76868;BME280;66168;45.478;11.060;2024-02-21T06:41:28;101713.55;;;11.26;54.42
76868;BME280;66168;45.478;11.060;2024-02-21T06:43:57;101713.19;;;11.28;54.51
76868;BME280;66168;45.478;11.060;2024-02-21T06:46:27;101717.93;;;11.29;54.61
76868;BME280;66168;45.478;11.060;2024-02-21T06:49:01;101719.55;;;11.27;54.75
76868;BME280;66168;45.478;11.060;2024-02-21T06:51:29;101718.79;;;11.25;54.84
76868;BME280;66168;45.478;11.060;2024-02-21T06:53:56;101722.71;;;11.25;54.86
76868;BME280;66168;45.478;11.060;2024-02-21T06:56:24;101724.62;;;11.26;54.91
76868;BME280;66168;45.478;11.060;2024-02-21T06:58:56;101724.00;;;11.27;54.79
76868;BME280;66168;45.478;11.060;2024-02-21T07:01:24;101724.66;;;11.29;54.84
76868;BME280;66168;45.478;11.060;2024-02-21T07:03:51;101724.59;;;11.31;54.98
76868;BME280;66168;45.478;11.060;2024-02-21T07:06:18;101727.67;;;11.34;55.06
76868;BME280;66168;45.478;11.060;2024-02-21T07:08:45;101730.30;;;11.36;55.17
76868;BME280;66168;45.478;11.060;2024-02-21T07:11:12;101732.50;;;11.39;55.05
76868;BME280;66168;45.478;11.060;2024-02-21T07:13:39;101731.42;;;11.41;55.16
76868;BME280;66168;45.478;11.060;2024-02-21T07:16:07;101734.55;;;11.43;55.02
76868;BME280;66168;45.478;11.060;2024-02-21T07:18:34;101736.64;;;11.45;55.11
76868;BME280;66168;45.478;11.060;2024-02-21T07:21:01;101737.70;;;11.47;55.06
76868;BME280;66168;45.478;11.060;2024-02-21T07:23:28;101737.48;;;11.51;55.10
76868;BME280;66168;45.478;11.060;2024-02-21T07:25:55;101738.04;;;11.56;55.16
76868;BME280;66168;45.478;11.060;2024-02-21T07:28:22;101735.36;;;11.61;55.25
76868;BME280;66168;45.478;11.060;2024-02-21T07:30:48;101732.90;;;11.68;55.39
76868;BME280;66168;45.478;11.060;2024-02-21T07:33:15;101728.45;;;11.75;55.23
76868;BME280;66168;45.478;11.060;2024-02-21T07:35:42;101728.67;;;11.84;55.20
76868;BME280;66168;45.478;11.060;2024-02-21T07:38:11;101731.52;;;11.92;55.02
76868;BME280;66168;45.478;11.060;2024-02-21T07:40:39;101736.64;;;12.01;54.85
76868;BME280;66168;45.478;11.060;2024-02-21T07:43:06;101734.98;;;12.10;54.81
76868;BME280;66168;45.478;11.060;2024-02-21T07:45:33;101741.34;;;12.21;54.77
76868;BME280;66168;45.478;11.060;2024-02-21T07:48:01;101742.59;;;12.31;54.35
76868;BME280;66168;45.478;11.060;2024-02-21T07:50:28;101744.96;;;12.41;54.07
76868;BME280;66168;45.478;11.060;2024-02-21T07:52:55;101748.48;;;12.52;53.91
76868;BME280;66168;45.478;11.060;2024-02-21T07:55:22;101753.95;;;12.62;53.83
76868;BME280;66168;45.478;11.060;2024-02-21T07:57:48;101756.23;;;12.75;53.90
76868;BME280;66168;45.478;11.060;2024-02-21T08:00:16;101753.27;;;12.87;53.79
76868;BME280;66168;45.478;11.060;2024-02-21T08:02:48;101752.20;;;13.00;53.42
76868;BME280;66168;45.478;11.060;2024-02-21T08:05:15;101748.98;;;13.10;53.25
76868;BME280;66168;45.478;11.060;2024-02-21T08:07:44;101748.73;;;13.21;52.98
76868;BME280;66168;45.478;11.060;2024-02-21T08:10:10;101752.04;;;13.31;53.02
76868;BME280;66168;45.478;11.060;2024-02-21T08:12:38;101751.73;;;13.41;52.93
76868;BME280;66168;45.478;11.060;2024-02-21T08:15:05;101753.24;;;13.49;52.89
76868;BME280;66168;45.478;11.060;2024-02-21T08:17:33;101756.98;;;13.59;52.86
76868;BME280;66168;45.478;11.060;2024-02-21T08:20:00;101759.23;;;13.69;52.79
76868;BME280;66168;45.478;11.060;2024-02-21T08:22:26;101760.46;;;13.81;52.55
76868;BME280;66168;45.478;11.060;2024-02-21T08:24:53;101766.96;;;13.93;52.61
76868;BME280;66168;45.478;11.060;2024-02-21T08:27:20;101768.16;;;14.06;52.66
76868;BME280;66168;45.478;11.060;2024-02-21T08:29:47;101770.02;;;14.18;52.78
76868;BME280;66168;45.478;11.060;2024-02-21T08:32:14;101773.83;;;14.28;52.53
76868;BME280;66168;45.478;11.060;2024-02-21T08:34:41;101773.23;;;14.35;52.59
76868;BME280;66168;45.478;11.060;2024-02-21T08:37:07;101768.96;;;14.41;52.40
76868;BME280;66168;45.478;11.060;2024-02-21T08:39:34;101765.09;;;14.47;52.49
76868;BME280;66168;45.478;11.060;2024-02-21T08:42:01;101764.14;;;14.53;52.58
76868;BME280;66168;45.478;11.060;2024-02-21T08:44:28;101760.27;;;14.55;53.40
76868;BME280;66168;45.478;11.060;2024-02-21T08:46:55;101760.91;;;14.57;54.10
76868;BME280;66168;45.478;11.060;2024-02-21T08:49:23;101754.62;;;14.59;54.06
76868;BME280;66168;45.478;11.060;2024-02-21T08:52:00;101752.84;;;14.56;54.41
76868;BME280;66168;45.478;11.060;2024-02-21T08:54:26;101750.86;;;14.40;54.95
76868;BME280;66168;45.478;11.060;2024-02-21T08:56:54;101749.88;;;14.32;55.30
76868;BME280;66168;45.478;11.060;2024-02-21T08:59:21;101752.15;;;14.32;55.65
76868;BME280;66168;45.478;11.060;2024-02-21T09:01:48;101754.52;;;14.37;55.46
76868;BME280;66168;45.478;11.060;2024-02-21T09:04:15;101753.67;;;14.44;55.90
76868;BME280;66168;45.478;11.060;2024-02-21T09:06:42;101754.28;;;14.42;55.61
76868;BME280;66168;45.478;11.060;2024-02-21T09:09:09;101747.60;;;14.38;55.56
76868;BME280;66168;45.478;11.060;2024-02-21T09:11:36;101748.56;;;14.41;55.38
76868;BME280;66168;45.478;11.060;2024-02-21T09:14:04;101745.55;;;14.50;55.53
76868;BME280;66168;45.478;11.060;2024-02-21T09:16:34;101742.40;;;14.63;54.51
76868;BME280;66168;45.478;11.060;2024-02-21T09:19:01;101738.34;;;14.67;54.12
76868;BME280;66168;45.478;11.060;2024-02-21T09:21:28;101739.58;;;14.78;54.67
76868;BME280;66168;45.478;11.060;2024-02-21T09:23:55;101736.86;;;14.94;54.41
76868;BME280;66168;45.478;11.060;2024-02-21T09:26:26;101735.92;;;15.00;53.42
76868;BME280;66168;45.478;11.060;2024-02-21T09:28:53;101741.86;;;15.12;53.10
76868;BME280;66168;45.478;11.060;2024-02-21T09:31:20;101737.20;;;15.21;52.53
76868;BME280;66168;45.478;11.060;2024-02-21T09:33:47;101740.86;;;15.11;51.03
76868;BME280;66168;45.478;11.060;2024-02-21T09:36:14;101743.23;;;15.06;50.56
76868;BME280;66168;45.478;11.060;2024-02-21T09:38:41;101740.52;;;15.04;50.75
76868;BME280;66168;45.478;11.060;2024-02-21T09:41:17;101736.84;;;15.12;51.23
76868;BME280;66168;45.478;11.060;2024-02-21T09:43:51;101738.84;;;15.18;50.77
76868;BME280;66168;45.478;11.060;2024-02-21T09:46:32;101737.22;;;15.15;50.35
76868;BME280;66168;45.478;11.060;2024-02-21T09:51:34;101737.37;;;15.26;50.96
76868;BME280;66168;45.478;11.060;2024-02-21T09:54:02;101740.09;;;15.24;50.37
76868;BME280;66168;45.478;11.060;2024-02-21T09:56:42;101741.27;;;15.09;50.40
76868;BME280;66168;45.478;11.060;2024-02-21T09:59:09;101740.75;;;15.03;50.41
76868;BME280;66168;45.478;11.060;2024-02-21T10:01:37;101738.46;;;15.15;50.73
76868;BME280;66168;45.478;11.060;2024-02-21T10:04:05;101731.11;;;15.36;50.32
76868;BME280;66168;45.478;11.060;2024-02-21T10:06:32;101725.63;;;15.61;50.84
76868;BME280;66168;45.478;11.060;2024-02-21T10:08:59;101727.29;;;15.80;49.45
76868;BME280;66168;45.478;11.060;2024-02-21T10:11:26;101725.61;;;15.76;48.74
76868;BME280;66168;45.478;11.060;2024-02-21T10:14:07;101727.43;;;15.76;48.54
76868;BME280;66168;45.478;11.060;2024-02-21T10:16:34;101723.45;;;15.69;48.67
76868;BME280;66168;45.478;11.060;2024-02-21T10:19:02;101722.98;;;15.73;49.12
76868;BME280;66168;45.478;11.060;2024-02-21T10:21:30;101724.38;;;15.79;48.94
76868;BME280;66168;45.478;11.060;2024-02-21T10:23:57;101724.95;;;15.84;48.53
76868;BME280;66168;45.478;11.060;2024-02-21T10:26:24;101726.20;;;15.82;48.81
76868;BME280;66168;45.478;11.060;2024-02-21T10:28:51;101731.55;;;15.73;48.49
76868;BME280;66168;45.478;11.060;2024-02-21T10:31:24;101726.63;;;15.86;48.64
76868;BME280;66168;45.478;11.060;2024-02-21T10:33:59;101727.58;;;16.03;48.17
76868;BME280;66168;45.478;11.060;2024-02-21T10:36:30;101731.46;;;16.09;47.09
76868;BME280;66168;45.478;11.060;2024-02-21T10:38:56;101729.66;;;16.19;46.66
76868;BME280;66168;45.478;11.060;2024-02-21T10:41:24;101727.08;;;16.36;47.35
76868;BME280;66168;45.478;11.060;2024-02-21T10:43:54;101723.55;;;16.41;46.87
76868;BME280;66168;45.478;11.060;2024-02-21T10:46:23;101723.58;;;16.40;47.21
76868;BME280;66168;45.478;11.060;2024-02-21T10:49:10;101714.02;;;16.48;46.74
76868;BME280;66168;45.478;11.060;2024-02-21T10:51:43;101714.85;;;16.49;46.93
76868;BME280;66168;45.478;11.060;2024-02-21T10:54:28;101714.16;;;16.40;46.55
76868;BME280;66168;45.478;11.060;2024-02-21T10:56:57;101708.31;;;16.48;47.33
76868;BME280;66168;45.478;11.060;2024-02-21T10:59:25;101708.91;;;16.62;48.53
76868;BME280;66168;45.478;11.060;2024-02-21T11:01:53;101705.53;;;16.73;49.03
76868;BME280;66168;45.478;11.060;2024-02-21T11:04:25;101702.46;;;16.79;48.53
76868;BME280;66168;45.478;11.060;2024-02-21T11:06:52;101695.66;;;16.93;49.80
76868;BME280;66168;45.478;11.060;2024-02-21T11:09:29;101690.63;;;16.91;48.61
76868;BME280;66168;45.478;11.060;2024-02-21T11:11:58;101683.83;;;16.83;49.10
76868;BME280;66168;45.478;11.060;2024-02-21T11:14:27;101675.54;;;16.65;50.28
76868;BME280;66168;45.478;11.060;2024-02-21T11:16:54;101670.59;;;16.59;50.56
76868;BME280;66168;45.478;11.060;2024-02-21T11:19:26;101668.31;;;16.54;50.28
76868;BME280;66168;45.478;11.060;2024-02-21T11:21:55;101660.33;;;16.58;50.67
76868;BME280;66168;45.478;11.060;2024-02-21T11:24:32;101651.41;;;16.43;51.10
76868;BME280;66168;45.478;11.060;2024-02-21T11:27:14;101647.16;;;16.37;51.61
76868;BME280;66168;45.478;11.060;2024-02-21T11:29:48;101642.09;;;16.37;52.07
76868;BME280;66168;45.478;11.060;2024-02-21T11:32:19;101637.48;;;16.43;51.89
76868;BME280;66168;45.478;11.060;2024-02-21T11:35:01;101635.48;;;16.41;51.38
76868;BME280;66168;45.478;11.060;2024-02-21T11:37:33;101628.88;;;16.49;51.53
76868;BME280;66168;45.478;11.060;2024-02-21T11:40:01;101625.91;;;16.38;51.09
76868;BME280;66168;45.478;11.060;2024-02-21T11:42:30;101625.52;;;16.37;51.37
76868;BME280;66168;45.478;11.060;2024-02-21T11:45:00;101626.77;;;16.47;51.58
76868;BME280;66168;45.478;11.060;2024-02-21T11:47:30;101623.84;;;16.73;51.45
76868;BME280;66168;45.478;11.060;2024-02-21T11:49:57;101624.65;;;16.91;51.13
76868;BME280;66168;45.478;11.060;2024-02-21T11:52:25;101618.94;;;16.89;51.32
76868;BME280;66168;45.478;11.060;2024-02-21T11:54:54;101615.77;;;16.86;50.87
76868;BME280;66168;45.478;11.060;2024-02-21T11:57:23;101611.79;;;16.68;51.97
76868;BME280;66168;45.478;11.060;2024-02-21T11:59:51;101602.94;;;16.62;51.70
76868;BME280;66168;45.478;11.060;2024-02-21T12:02:26;101602.73;;;16.66;51.89
76868;BME280;66168;45.478;11.060;2024-02-21T12:04:53;101603.85;;;16.84;52.12
76868;BME280;66168;45.478;11.060;2024-02-21T12:07:21;101601.48;;;16.91;51.51
76868;BME280;66168;45.478;11.060;2024-02-21T12:09:51;101596.67;;;16.81;51.49
76868;BME280;66168;45.478;11.060;2024-02-21T12:12:20;101592.52;;;16.74;51.83
76868;BME280;66168;45.478;11.060;2024-02-21T12:14:56;101582.73;;;16.65;52.36
76868;BME280;66168;45.478;11.060;2024-02-21T12:17:25;101580.27;;;16.63;52.02
76868;BME280;66168;45.478;11.060;2024-02-21T12:19:52;101574.86;;;16.56;52.09
76868;BME280;66168;45.478;11.060;2024-02-21T12:22:19;101570.28;;;16.61;52.44
76868;BME280;66168;45.478;11.060;2024-02-21T12:24:46;101562.45;;;16.71;52.83
76868;BME280;66168;45.478;11.060;2024-02-21T12:27:15;101556.50;;;16.97;52.03
76868;BME280;66168;45.478;11.060;2024-02-21T12:29:42;101548.71;;;16.99;51.49
76868;BME280;66168;45.478;11.060;2024-02-21T12:32:09;101542.64;;;16.85;52.05
76868;BME280;66168;45.478;11.060;2024-02-21T12:34:37;101537.39;;;16.84;52.44
76868;BME280;66168;45.478;11.060;2024-02-21T12:37:19;101530.67;;;17.04;52.42
76868;BME280;66168;45.478;11.060;2024-02-21T12:39:47;101532.79;;;17.29;51.72
76868;BME280;66168;45.478;11.060;2024-02-21T12:42:15;101527.29;;;17.40;51.91
76868;BME280;66168;45.478;11.060;2024-02-21T12:44:42;101525.70;;;17.16;52.15
76868;BME280;66168;45.478;11.060;2024-02-21T12:47:09;101523.86;;;17.07;52.01
76868;BME280;66168;45.478;11.060;2024-02-21T12:49:36;101524.56;;;16.93;51.82
76868;BME280;66168;45.478;11.060;2024-02-21T12:52:09;101519.20;;;16.91;52.03